sensor_id;sensor_type;location;lat;lon;timestamp;P1;P2;P0
45871;PMS5003;32333;55.844;-3.210;2023-04-21T00:01:49;4;4;
45871;PMS5003;32333;55.844;-3.210;2023-04-21T00:04:16;0;0;
45871;PMS5003;32333;55.844;-3.210;2023-04-21T00:06:43;0;0;
45871;PMS5003;32333;55.844;-3.210;2023-04-21T00:09:11;0;0;
45871;PMS5003;32333;55.844;-3.210;2023-04-21T00:11:39;0;0;
45871;PMS5003;32333;55.844;-3.210;2023-04-21T00:14:35;0;0;
45871;PMS5003;32333;55.844;-3.210;2023-04-21T00:17:02;0;0;
45871;PMS5003;32333;55.844;-3.210;2023-04-21T00:19:30;0;0;
45871;PMS5003;32333;55.844;-3.210;2023-04-21T00:21:57;0;0;
45871;PMS5003;32333;55.844;-3.210;2023-04-21T00:24:24;0;0;
45871;PMS5003;32333;55.844;-3.210;2023-04-21T00:26:52;0;0;
45871;PMS5003;32333;55.844;-3.210;2023-04-21T00:29:19;0;0;
45871;PMS5003;32333;55.844;-3.210;2023-04-21T00:31:48;0;0;
45871;PMS5003;32333;55.844;-3.210;2023-04-21T00:34:15;0;0;
45871;PMS5003;32333;55.844;-3.210;2023-04-21T00:36:43;0;0;
45871;PMS5003;32333;55.844;-3.210;2023-04-21T00:39:10;0;0;
45871;PMS5003;32333;55.844;-3.210;2023-04-21T00:41:38;0;0;
45871;PMS5003;32333;55.844;-3.210;2023-04-21T00:44:35;0;0;
45871;PMS5003;32333;55.844;-3.210;2023-04-21T00:47:02;0;0;
45871;PMS5003;32333;55.844;-3.210;2023-04-21T00:49:30;0;0;
45871;PMS5003;32333;55.844;-3.210;2023-04-21T00:51:58;0;0;
45871;PMS5003;32333;55.844;-3.210;2023-04-21T00:54:26;0;0;
45871;PMS5003;32333;55.844;-3.210;2023-04-21T00:56:54;0;0;
45871;PMS5003;32333;55.844;-3.210;2023-04-21T00:59:23;0;0;
45871;PMS5003;32333;55.844;-3.210;2023-04-21T01:01:50;0;0;
45871;PMS5003;32333;55.844;-3.210;2023-04-21T01:04:18;0;0;
45871;PMS5003;32333;55.844;-3.210;2023-04-21T01:06:45;0;0;
45871;PMS5003;32333;55.844;-3.210;2023-04-21T01:09:13;0;0;
45871;PMS5003;32333;55.844;-3.210;2023-04-21T01:11:40;0;0;
45871;PMS5003;32333;55.844;-3.210;2023-04-21T01:14:35;0;0;
45871;PMS5003;32333;55.844;-3.210;2023-04-21T01:17:04;0;0;
45871;PMS5003;32333;55.844;-3.210;2023-04-21T01:19:32;0;0;
45871;PMS5003;32333;55.844;-3.210;2023-04-21T01:22:04;0;0;
45871;PMS5003;32333;55.844;-3.210;2023-04-21T01:24:44;0;0;
45871;PMS5003;32333;55.844;-3.210;2023-04-21T01:27:18;0;0;
45871;PMS5003;32333;55.844;-3.210;2023-04-21T01:29:47;0;0;
45871;PMS5003;32333;55.844;-3.210;2023-04-21T01:32:18;0;0;
45871;PMS5003;32333;55.844;-3.210;2023-04-21T01:34:48;0;0;
45871;PMS5003;32333;55.844;-3.210;2023-04-21T01:37:17;0;0;
45871;PMS5003;32333;55.844;-3.210;2023-04-21T01:39:48;0;0;
45871;PMS5003;32333;55.844;-3.210;2023-04-21T01:44:35;1;1;
45871;PMS5003;32333;55.844;-3.210;2023-04-21T01:47:02;0;0;
45871;PMS5003;32333;55.844;-3.210;2023-04-21T01:49:30;0;0;
45871;PMS5003;32333;55.844;-3.210;2023-04-21T01:51:59;0;0;
45871;PMS5003;32333;55.844;-3.210;2023-04-21T01:54:26;0;0;
45871;PMS5003;32333;55.844;-3.210;2023-04-21T01:56:54;1;1;
45871;PMS5003;32333;55.844;-3.210;2023-04-21T01:59:22;0;0;
45871;PMS5003;32333;55.844;-3.210;2023-04-21T02:01:50;0;0;
45871;PMS5003;32333;55.844;-3.210;2023-04-21T02:04:17;1;0;
45871;PMS5003;32333;55.844;-3.210;2023-04-21T02:06:44;1;1;
45871;PMS5003;32333;55.844;-3.210;2023-04-21T02:09:12;0;0;
45871;PMS5003;32333;55.844;-3.210;2023-04-21T02:11:40;0;0;
45871;PMS5003;32333;55.844;-3.210;2023-04-21T02:14:35;0;0;
45871;PMS5003;32333;55.844;-3.210;2023-04-21T02:17:03;0;0;
45871;PMS5003;32333;55.844;-3.210;2023-04-21T02:19:31;0;0;
45871;PMS5003;32333;55.844;-3.210;2023-04-21T02:21:59;0;0;
45871;PMS5003;32333;55.844;-3.210;2023-04-21T02:24:26;0;0;
45871;PMS5003;32333;55.844;-3.210;2023-04-21T02:26:54;0;0;
45871;PMS5003;32333;55.844;-3.210;2023-04-21T02:29:22;0;0;
45871;PMS5003;32333;55.844;-3.210;2023-04-21T02:31:50;0;0;
45871;PMS5003;32333;55.844;-3.210;2023-04-21T02:34:17;1;0;
45871;PMS5003;32333;55.844;-3.210;2023-04-21T02:36:45;1;1;
45871;PMS5003;32333;55.844;-3.210;2023-04-21T02:39:12;0;0;
45871;PMS5003;32333;55.844;-3.210;2023-04-21T02:41:40;1;0;
45871;PMS5003;32333;55.844;-3.210;2023-04-21T02:44:36;0;0;
45871;PMS5003;32333;55.844;-3.210;2023-04-21T02:47:03;1;1;
45871;PMS5003;32333;55.844;-3.210;2023-04-21T02:49:30;0;0;
45871;PMS5003;32333;55.844;-3.210;2023-04-21T02:51:59;0;0;
45871;PMS5003;32333;55.844;-3.210;2023-04-21T02:54:26;1;1;
45871;PMS5003;32333;55.844;-3.210;2023-04-21T02:56:53;0;0;
45871;PMS5003;32333;55.844;-3.210;2023-04-21T02:59:21;1;1;
45871;PMS5003;32333;55.844;-3.210;2023-04-21T03:01:49;0;0;
45871;PMS5003;32333;55.844;-3.210;2023-04-21T03:04:16;0;0;
45871;PMS5003;32333;55.844;-3.210;2023-04-21T03:06:44;0;0;
45871;PMS5003;32333;55.844;-3.210;2023-04-21T03:09:11;1;0;
45871;PMS5003;32333;55.844;-3.210;2023-04-21T03:11:39;1;1;
45871;PMS5003;32333;55.844;-3.210;2023-04-21T03:14:35;0;0;
45871;PMS5003;32333;55.844;-3.210;2023-04-21T03:17:02;0;0;
45871;PMS5003;32333;55.844;-3.210;2023-04-21T03:19:30;0;0;
45871;PMS5003;32333;55.844;-3.210;2023-04-21T03:21:58;0;0;
45871;PMS5003;32333;55.844;-3.210;2023-04-21T03:24:26;0;0;
45871;PMS5003;32333;55.844;-3.210;2023-04-21T03:26:53;0;0;
45871;PMS5003;32333;55.844;-3.210;2023-04-21T03:29:21;0;0;
45871;PMS5003;32333;55.844;-3.210;2023-04-21T03:31:48;1;1;
45871;PMS5003;32333;55.844;-3.210;2023-04-21T03:34:16;0;0;
45871;PMS5003;32333;55.844;-3.210;2023-04-21T03:36:43;0;0;
45871;PMS5003;32333;55.844;-3.210;2023-04-21T03:39:12;0;0;
45871;PMS5003;32333;55.844;-3.210;2023-04-21T03:41:39;0;0;
45871;PMS5003;32333;55.844;-3.210;2023-04-21T03:44:35;0;0;
45871;PMS5003;32333;55.844;-3.210;2023-04-21T03:47:03;0;0;
45871;PMS5003;32333;55.844;-3.210;2023-04-21T03:49:32;0;0;
45871;PMS5003;32333;55.844;-3.210;2023-04-21T03:52:00;0;0;
45871;PMS5003;32333;55.844;-3.210;2023-04-21T03:54:28;0;0;
45871;PMS5003;32333;55.844;-3.210;2023-04-21T03:56:55;1;1;
45871;PMS5003;32333;55.844;-3.210;2023-04-21T03:59:24;0;0;
45871;PMS5003;32333;55.844;-3.210;2023-04-21T04:01:51;0;0;
45871;PMS5003;32333;55.844;-3.210;2023-04-21T04:04:19;0;0;
45871;PMS5003;32333;55.844;-3.210;2023-04-21T04:06:47;0;0;
45871;PMS5003;32333;55.844;-3.210;2023-04-21T04:09:14;0;0;
45871;PMS5003;32333;55.844;-3.210;2023-04-21T04:11:41;1;1;
45871;PMS5003;32333;55.844;-3.210;2023-04-21T04:14:34;0;0;
45871;PMS5003;32333;55.844;-3.210;2023-04-21T04:17:03;27;27;
45871;PMS5003;32333;55.844;-3.210;2023-04-21T04:19:30;61;61;
45871;PMS5003;32333;55.844;-3.210;2023-04-21T04:21:58;1;1;
45871;PMS5003;32333;55.844;-3.210;2023-04-21T04:24:26;1;1;
45871;PMS5003;32333;55.844;-3.210;2023-04-21T04:26:54;0;0;
45871;PMS5003;32333;55.844;-3.210;2023-04-21T04:29:21;0;0;
45871;PMS5003;32333;55.844;-3.210;2023-04-21T04:31:50;0;0;
45871;PMS5003;32333;55.844;-3.210;2023-04-21T04:34:17;0;0;
45871;PMS5003;32333;55.844;-3.210;2023-04-21T04:36:45;0;0;
45871;PMS5003;32333;55.844;-3.210;2023-04-21T04:39:12;1;1;
45871;PMS5003;32333;55.844;-3.210;2023-04-21T04:41:41;3;1;
45871;PMS5003;32333;55.844;-3.210;2023-04-21T04:44:35;0;0;
45871;PMS5003;32333;55.844;-3.210;2023-04-21T04:47:03;0;0;
45871;PMS5003;32333;55.844;-3.210;2023-04-21T04:49:30;0;0;
45871;PMS5003;32333;55.844;-3.210;2023-04-21T04:51:59;0;0;
45871;PMS5003;32333;55.844;-3.210;2023-04-21T04:54:26;1;1;
45871;PMS5003;32333;55.844;-3.210;2023-04-21T04:56:54;0;0;
45871;PMS5003;32333;55.844;-3.210;2023-04-21T04:59:22;0;0;
45871;PMS5003;32333;55.844;-3.210;2023-04-21T05:01:50;0;0;
45871;PMS5003;32333;55.844;-3.210;2023-04-21T05:04:17;0;0;
45871;PMS5003;32333;55.844;-3.210;2023-04-21T05:06:45;0;0;
45871;PMS5003;32333;55.844;-3.210;2023-04-21T05:09:12;4;4;
45871;PMS5003;32333;55.844;-3.210;2023-04-21T05:11:40;0;0;
45871;PMS5003;32333;55.844;-3.210;2023-04-21T05:14:35;0;0;
45871;PMS5003;32333;55.844;-3.210;2023-04-21T05:17:02;0;0;
45871;PMS5003;32333;55.844;-3.210;2023-04-21T05:19:30;0;0;
45871;PMS5003;32333;55.844;-3.210;2023-04-21T05:22:00;0;0;
45871;PMS5003;32333;55.844;-3.210;2023-04-21T05:24:27;4;3;
45871;PMS5003;32333;55.844;-3.210;2023-04-21T05:26:55;3;3;
45871;PMS5003;32333;55.844;-3.210;2023-04-21T05:29:23;1;1;
45871;PMS5003;32333;55.844;-3.210;2023-04-21T05:31:51;1;1;
45871;PMS5003;32333;55.844;-3.210;2023-04-21T05:34:18;0;0;
45871;PMS5003;32333;55.844;-3.210;2023-04-21T05:36:47;3;3;
45871;PMS5003;32333;55.844;-3.210;2023-04-21T05:39:14;1;1;
45871;PMS5003;32333;55.844;-3.210;2023-04-21T05:41:42;0;0;
45871;PMS5003;32333;55.844;-3.210;2023-04-21T05:44:35;0;0;
45871;PMS5003;32333;55.844;-3.210;2023-04-21T05:47:03;0;0;
45871;PMS5003;32333;55.844;-3.210;2023-04-21T05:49:30;0;0;
45871;PMS5003;32333;55.844;-3.210;2023-04-21T05:51:59;1;1;
45871;PMS5003;32333;55.844;-3.210;2023-04-21T05:54:26;3;3;
45871;PMS5003;32333;55.844;-3.210;2023-04-21T05:56:54;0;0;
45871;PMS5003;32333;55.844;-3.210;2023-04-21T05:59:21;1;1;
45871;PMS5003;32333;55.844;-3.210;2023-04-21T06:01:49;1;1;
45871;PMS5003;32333;55.844;-3.210;2023-04-21T06:04:16;0;0;
45871;PMS5003;32333;55.844;-3.210;2023-04-21T06:06:43;22;22;
45871;PMS5003;32333;55.844;-3.210;2023-04-21T06:09:10;10;10;
45871;PMS5003;32333;55.844;-3.210;2023-04-21T06:11:38;37;37;
45871;PMS5003;32333;55.844;-3.210;2023-04-21T06:14:35;15;15;
45871;PMS5003;32333;55.844;-3.210;2023-04-21T06:17:02;42;42;
45871;PMS5003;32333;55.844;-3.210;2023-04-21T06:19:35;97;96;
45871;PMS5003;32333;55.844;-3.210;2023-04-21T06:22:03;70;70;
45871;PMS5003;32333;55.844;-3.210;2023-04-21T06:24:32;16;16;
45871;PMS5003;32333;55.844;-3.210;2023-04-21T06:26:59;72;72;
45871;PMS5003;32333;55.844;-3.210;2023-04-21T06:29:26;103;103;
45871;PMS5003;32333;55.844;-3.210;2023-04-21T06:31:53;16;16;
45871;PMS5003;32333;55.844;-3.210;2023-04-21T06:34:21;75;75;
45871;PMS5003;32333;55.844;-3.210;2023-04-21T06:36:48;106;106;
45871;PMS5003;32333;55.844;-3.210;2023-04-21T06:39:15;21;21;
45871;PMS5003;32333;55.844;-3.210;2023-04-21T06:41:42;21;19;
45871;PMS5003;32333;55.844;-3.210;2023-04-21T06:44:35;18;18;
45871;PMS5003;32333;55.844;-3.210;2023-04-21T06:47:02;31;31;
45871;PMS5003;32333;55.844;-3.210;2023-04-21T06:49:30;36;36;
45871;PMS5003;32333;55.844;-3.210;2023-04-21T06:51:57;115;112;
45871;PMS5003;32333;55.844;-3.210;2023-04-21T06:54:24;84;84;
45871;PMS5003;32333;55.844;-3.210;2023-04-21T06:56:53;49;49;
45871;PMS5003;32333;55.844;-3.210;2023-04-21T06:59:20;36;36;
45871;PMS5003;32333;55.844;-3.210;2023-04-21T07:01:48;21;21;
45871;PMS5003;32333;55.844;-3.210;2023-04-21T07:04:15;13;13;
45871;PMS5003;32333;55.844;-3.210;2023-04-21T07:06:43;12;12;
45871;PMS5003;32333;55.844;-3.210;2023-04-21T07:09:10;18;18;
45871;PMS5003;32333;55.844;-3.210;2023-04-21T07:11:37;12;12;
45871;PMS5003;32333;55.844;-3.210;2023-04-21T07:14:35;10;10;
45871;PMS5003;32333;55.844;-3.210;2023-04-21T07:17:02;13;13;
45871;PMS5003;32333;55.844;-3.210;2023-04-21T07:19:30;16;16;
45871;PMS5003;32333;55.844;-3.210;2023-04-21T07:21:58;13;13;
45871;PMS5003;32333;55.844;-3.210;2023-04-21T07:24:26;13;13;
45871;PMS5003;32333;55.844;-3.210;2023-04-21T07:26:53;12;12;
45871;PMS5003;32333;55.844;-3.210;2023-04-21T07:29:21;13;13;
45871;PMS5003;32333;55.844;-3.210;2023-04-21T07:31:48;13;13;
45871;PMS5003;32333;55.844;-3.210;2023-04-21T07:34:15;1;1;
45871;PMS5003;32333;55.844;-3.210;2023-04-21T07:36:42;3;3;
45871;PMS5003;32333;55.844;-3.210;2023-04-21T07:39:10;6;6;
45871;PMS5003;32333;55.844;-3.210;2023-04-21T07:41:38;0;0;
45871;PMS5003;32333;55.844;-3.210;2023-04-21T07:44:35;0;0;
45871;PMS5003;32333;55.844;-3.210;2023-04-21T07:47:02;1;1;
45871;PMS5003;32333;55.844;-3.210;2023-04-21T07:49:30;0;0;
45871;PMS5003;32333;55.844;-3.210;2023-04-21T07:51:58;1;1;
45871;PMS5003;32333;55.844;-3.210;2023-04-21T07:54:26;13;12;
45871;PMS5003;32333;55.844;-3.210;2023-04-21T07:56:53;11;11;
45871;PMS5003;32333;55.844;-3.210;2023-04-21T07:59:20;11;11;
45871;PMS5003;32333;55.844;-3.210;2023-04-21T08:01:48;10;8;
45871;PMS5003;32333;55.844;-3.210;2023-04-21T08:04:15;11;10;
45871;PMS5003;32333;55.844;-3.210;2023-04-21T08:06:42;13;10;
45871;PMS5003;32333;55.844;-3.210;2023-04-21T08:09:10;11;10;
45871;PMS5003;32333;55.844;-3.210;2023-04-21T08:11:38;11;11;
45871;PMS5003;32333;55.844;-3.210;2023-04-21T08:14:35;0;0;
45871;PMS5003;32333;55.844;-3.210;2023-04-21T08:17:03;1;1;
45871;PMS5003;32333;55.844;-3.210;2023-04-21T08:19:30;0;0;
45871;PMS5003;32333;55.844;-3.210;2023-04-21T08:21:58;1;1;
45871;PMS5003;32333;55.844;-3.210;2023-04-21T08:24:26;1;1;
45871;PMS5003;32333;55.844;-3.210;2023-04-21T08:26:53;0;0;
45871;PMS5003;32333;55.844;-3.210;2023-04-21T08:29:20;1;0;
45871;PMS5003;32333;55.844;-3.210;2023-04-21T08:31:48;0;0;
45871;PMS5003;32333;55.844;-3.210;2023-04-21T08:34:16;0;0;
45871;PMS5003;32333;55.844;-3.210;2023-04-21T08:36:43;1;1;
45871;PMS5003;32333;55.844;-3.210;2023-04-21T08:39:10;3;3;
45871;PMS5003;32333;55.844;-3.210;2023-04-21T08:41:38;0;0;
45871;PMS5003;32333;55.844;-3.210;2023-04-21T08:44:35;1;1;
45871;PMS5003;32333;55.844;-3.210;2023-04-21T08:47:03;0;0;
45871;PMS5003;32333;55.844;-3.210;2023-04-21T08:49:31;1;1;
45871;PMS5003;32333;55.844;-3.210;2023-04-21T08:51:59;3;3;
45871;PMS5003;32333;55.844;-3.210;2023-04-21T08:54:26;4;3;
45871;PMS5003;32333;55.844;-3.210;2023-04-21T08:56:54;1;1;
45871;PMS5003;32333;55.844;-3.210;2023-04-21T08:59:22;4;4;
45871;PMS5003;32333;55.844;-3.210;2023-04-21T09:02:05;0;0;
45871;PMS5003;32333;55.844;-3.210;2023-04-21T09:04:34;3;3;
45871;PMS5003;32333;55.844;-3.210;2023-04-21T09:07:05;1;1;
45871;PMS5003;32333;55.844;-3.210;2023-04-21T09:09:33;0;0;
45871;PMS5003;32333;55.844;-3.210;2023-04-21T09:14:35;6;1;
45871;PMS5003;32333;55.844;-3.210;2023-04-21T09:17:02;0;0;
45871;PMS5003;32333;55.844;-3.210;2023-04-21T09:19:32;0;0;
45871;PMS5003;32333;55.844;-3.210;2023-04-21T09:22:00;1;1;
45871;PMS5003;32333;55.844;-3.210;2023-04-21T09:24:28;0;0;
45871;PMS5003;32333;55.844;-3.210;2023-04-21T09:26:56;4;3;
45871;PMS5003;32333;55.844;-3.210;2023-04-21T09:29:24;3;1;
45871;PMS5003;32333;55.844;-3.210;2023-04-21T09:31:52;4;3;
45871;PMS5003;32333;55.844;-3.210;2023-04-21T09:34:20;0;0;
45871;PMS5003;32333;55.844;-3.210;2023-04-21T09:36:51;3;3;
45871;PMS5003;32333;55.844;-3.210;2023-04-21T09:39:25;0;0;
45871;PMS5003;32333;55.844;-3.210;2023-04-21T09:41:54;1;1;
45871;PMS5003;32333;55.844;-3.210;2023-04-21T09:44:34;3;3;
45871;PMS5003;32333;55.844;-3.210;2023-04-21T09:47:02;4;3;
45871;PMS5003;32333;55.844;-3.210;2023-04-21T09:49:30;6;4;
45871;PMS5003;32333;55.844;-3.210;2023-04-21T09:52:01;1;1;
45871;PMS5003;32333;55.844;-3.210;2023-04-21T09:54:30;6;3;
45871;PMS5003;32333;55.844;-3.210;2023-04-21T09:56:59;1;1;
45871;PMS5003;32333;55.844;-3.210;2023-04-21T09:59:29;4;1;
45871;PMS5003;32333;55.844;-3.210;2023-04-21T10:01:59;3;1;
45871;PMS5003;32333;55.844;-3.210;2023-04-21T10:04:31;1;1;
45871;PMS5003;32333;55.844;-3.210;2023-04-21T10:07:01;1;1;
45871;PMS5003;32333;55.844;-3.210;2023-04-21T10:09:32;1;1;
45871;PMS5003;32333;55.844;-3.210;2023-04-21T10:14:35;1;1;
45871;PMS5003;32333;55.844;-3.210;2023-04-21T10:17:03;1;1;
45871;PMS5003;32333;55.844;-3.210;2023-04-21T10:19:33;0;0;
45871;PMS5003;32333;55.844;-3.210;2023-04-21T10:22:02;1;0;
45871;PMS5003;32333;55.844;-3.210;2023-04-21T10:24:35;1;1;
45871;PMS5003;32333;55.844;-3.210;2023-04-21T10:27:03;1;1;
45871;PMS5003;32333;55.844;-3.210;2023-04-21T10:29:31;1;0;
45871;PMS5003;32333;55.844;-3.210;2023-04-21T10:31:59;1;0;
45871;PMS5003;32333;55.844;-3.210;2023-04-21T10:34:33;3;1;
45871;PMS5003;32333;55.844;-3.210;2023-04-21T10:37:10;0;0;
45871;PMS5003;32333;55.844;-3.210;2023-04-21T10:39:43;0;0;
45871;PMS5003;32333;55.844;-3.210;2023-04-21T10:44:34;1;1;
45871;PMS5003;32333;55.844;-3.210;2023-04-21T10:47:08;0;0;
45871;PMS5003;32333;55.844;-3.210;2023-04-21T10:49:37;0;0;
45871;PMS5003;32333;55.844;-3.210;2023-04-21T10:52:05;1;0;
45871;PMS5003;32333;55.844;-3.210;2023-04-21T10:54:36;1;1;
45871;PMS5003;32333;55.844;-3.210;2023-04-21T10:57:09;1;1;
45871;PMS5003;32333;55.844;-3.210;2023-04-21T10:59:38;1;1;
45871;PMS5003;32333;55.844;-3.210;2023-04-21T11:02:06;3;1;
45871;PMS5003;32333;55.844;-3.210;2023-04-21T11:04:34;1;1;
45871;PMS5003;32333;55.844;-3.210;2023-04-21T11:07:05;0;0;
45871;PMS5003;32333;55.844;-3.210;2023-04-21T11:09:34;0;0;
45871;PMS5003;32333;55.844;-3.210;2023-04-21T11:14:35;0;0;
45871;PMS5003;32333;55.844;-3.210;2023-04-21T11:17:04;0;0;
45871;PMS5003;32333;55.844;-3.210;2023-04-21T11:19:36;1;1;
45871;PMS5003;32333;55.844;-3.210;2023-04-21T11:22:04;0;0;
45871;PMS5003;32333;55.844;-3.210;2023-04-21T11:24:33;1;1;
45871;PMS5003;32333;55.844;-3.210;2023-04-21T11:27:00;1;1;
45871;PMS5003;32333;55.844;-3.210;2023-04-21T11:29:28;0;0;
45871;PMS5003;32333;55.844;-3.210;2023-04-21T11:31:56;1;1;
45871;PMS5003;32333;55.844;-3.210;2023-04-21T11:34:24;0;0;
45871;PMS5003;32333;55.844;-3.210;2023-04-21T11:36:52;0;0;
45871;PMS5003;32333;55.844;-3.210;2023-04-21T11:39:20;1;1;
45871;PMS5003;32333;55.844;-3.210;2023-04-21T11:41:48;0;0;
45871;PMS5003;32333;55.844;-3.210;2023-04-21T11:44:36;0;0;
45871;PMS5003;32333;55.844;-3.210;2023-04-21T11:47:12;0;0;
45871;PMS5003;32333;55.844;-3.210;2023-04-21T11:49:43;1;0;
45871;PMS5003;32333;55.844;-3.210;2023-04-21T11:52:18;0;0;
45871;PMS5003;32333;55.844;-3.210;2023-04-21T11:54:47;0;0;
45871;PMS5003;32333;55.844;-3.210;2023-04-21T11:57:16;0;0;
45871;PMS5003;32333;55.844;-3.210;2023-04-21T11:59:44;1;1;
45871;PMS5003;32333;55.844;-3.210;2023-04-21T12:02:12;0;0;
45871;PMS5003;32333;55.844;-3.210;2023-04-21T12:04:55;0;0;
45871;PMS5003;32333;55.844;-3.210;2023-04-21T12:07:25;1;1;
45871;PMS5003;32333;55.844;-3.210;2023-04-21T12:09:53;0;0;
45871;PMS5003;32333;55.844;-3.210;2023-04-21T12:14:35;0;0;
45871;PMS5003;32333;55.844;-3.210;2023-04-21T12:17:02;0;0;
45871;PMS5003;32333;55.844;-3.210;2023-04-21T12:19:34;0;0;
45871;PMS5003;32333;55.844;-3.210;2023-04-21T12:22:05;1;1;
45871;PMS5003;32333;55.844;-3.210;2023-04-21T12:24:33;1;1;
45871;PMS5003;32333;55.844;-3.210;2023-04-21T12:27:01;3;3;
45871;PMS5003;32333;55.844;-3.210;2023-04-21T12:29:29;0;0;
45871;PMS5003;32333;55.844;-3.210;2023-04-21T12:31:57;1;1;
45871;PMS5003;32333;55.844;-3.210;2023-04-21T12:34:24;1;1;
45871;PMS5003;32333;55.844;-3.210;2023-04-21T12:36:52;0;0;
45871;PMS5003;32333;55.844;-3.210;2023-04-21T12:39:20;3;1;
45871;PMS5003;32333;55.844;-3.210;2023-04-21T12:41:48;7;4;
45871;PMS5003;32333;55.844;-3.210;2023-04-21T12:44:35;1;1;
45871;PMS5003;32333;55.844;-3.210;2023-04-21T12:47:03;1;1;
45871;PMS5003;32333;55.844;-3.210;2023-04-21T12:49:30;0;0;
45871;PMS5003;32333;55.844;-3.210;2023-04-21T12:51:58;3;1;
45871;PMS5003;32333;55.844;-3.210;2023-04-21T12:54:26;0;0;
45871;PMS5003;32333;55.844;-3.210;2023-04-21T12:56:53;0;0;
45871;PMS5003;32333;55.844;-3.210;2023-04-21T12:59:21;1;0;
45871;PMS5003;32333;55.844;-3.210;2023-04-21T13:01:49;3;3;
45871;PMS5003;32333;55.844;-3.210;2023-04-21T13:04:17;0;0;
45871;PMS5003;32333;55.844;-3.210;2023-04-21T13:06:44;1;1;
45871;PMS5003;32333;55.844;-3.210;2023-04-21T13:09:11;0;0;
45871;PMS5003;32333;55.844;-3.210;2023-04-21T13:11:41;3;3;
45871;PMS5003;32333;55.844;-3.210;2023-04-21T13:14:34;1;0;
45871;PMS5003;32333;55.844;-3.210;2023-04-21T13:17:03;1;1;
45871;PMS5003;32333;55.844;-3.210;2023-04-21T13:19:30;0;0;
45871;PMS5003;32333;55.844;-3.210;2023-04-21T13:21:58;0;0;
45871;PMS5003;32333;55.844;-3.210;2023-04-21T13:24:26;0;0;
45871;PMS5003;32333;55.844;-3.210;2023-04-21T13:26:53;0;0;
45871;PMS5003;32333;55.844;-3.210;2023-04-21T13:29:21;1;0;
45871;PMS5003;32333;55.844;-3.210;2023-04-21T13:31:49;3;3;
45871;PMS5003;32333;55.844;-3.210;2023-04-21T13:34:17;6;1;
45871;PMS5003;32333;55.844;-3.210;2023-04-21T13:36:44;0;0;
45871;PMS5003;32333;55.844;-3.210;2023-04-21T13:39:11;1;1;
45871;PMS5003;32333;55.844;-3.210;2023-04-21T13:41:39;0;0;
45871;PMS5003;32333;55.844;-3.210;2023-04-21T13:44:35;1;1;
45871;PMS5003;32333;55.844;-3.210;2023-04-21T13:47:04;1;1;
45871;PMS5003;32333;55.844;-3.210;2023-04-21T13:49:31;3;1;
45871;PMS5003;32333;55.844;-3.210;2023-04-21T13:52:02;1;1;
45871;PMS5003;32333;55.844;-3.210;2023-04-21T13:54:29;3;3;
45871;PMS5003;32333;55.844;-3.210;2023-04-21T13:56:57;0;0;
45871;PMS5003;32333;55.844;-3.210;2023-04-21T13:59:25;1;1;
45871;PMS5003;32333;55.844;-3.210;2023-04-21T14:01:53;0;0;
45871;PMS5003;32333;55.844;-3.210;2023-04-21T14:04:21;1;1;
45871;PMS5003;32333;55.844;-3.210;2023-04-21T14:06:48;1;1;
45871;PMS5003;32333;55.844;-3.210;2023-04-21T14:09:16;0;0;
45871;PMS5003;32333;55.844;-3.210;2023-04-21T14:11:45;0;0;
45871;PMS5003;32333;55.844;-3.210;2023-04-21T14:14:35;0;0;
45871;PMS5003;32333;55.844;-3.210;2023-04-21T14:17:05;3;3;
45871;PMS5003;32333;55.844;-3.210;2023-04-21T14:19:34;0;0;
45871;PMS5003;32333;55.844;-3.210;2023-04-21T14:22:01;3;0;
45871;PMS5003;32333;55.844;-3.210;2023-04-21T14:24:28;1;1;
45871;PMS5003;32333;55.844;-3.210;2023-04-21T14:26:56;0;0;
45871;PMS5003;32333;55.844;-3.210;2023-04-21T14:29:24;0;0;
45871;PMS5003;32333;55.844;-3.210;2023-04-21T14:31:51;0;0;
45871;PMS5003;32333;55.844;-3.210;2023-04-21T14:34:18;1;1;
45871;PMS5003;32333;55.844;-3.210;2023-04-21T14:36:46;0;0;
45871;PMS5003;32333;55.844;-3.210;2023-04-21T14:39:14;0;0;
45871;PMS5003;32333;55.844;-3.210;2023-04-21T14:41:41;1;1;
45871;PMS5003;32333;55.844;-3.210;2023-04-21T14:44:34;3;1;
45871;PMS5003;32333;55.844;-3.210;2023-04-21T14:47:02;0;0;
45871;PMS5003;32333;55.844;-3.210;2023-04-21T14:49:29;1;1;
45871;PMS5003;32333;55.844;-3.210;2023-04-21T14:51:56;1;1;
45871;PMS5003;32333;55.844;-3.210;2023-04-21T14:54:24;1;1;
45871;PMS5003;32333;55.844;-3.210;2023-04-21T14:56:51;0;0;
45871;PMS5003;32333;55.844;-3.210;2023-04-21T14:59:18;0;0;
45871;PMS5003;32333;55.844;-3.210;2023-04-21T15:01:47;0;0;
45871;PMS5003;32333;55.844;-3.210;2023-04-21T15:04:14;1;1;
45871;PMS5003;32333;55.844;-3.210;2023-04-21T15:06:42;0;0;
45871;PMS5003;32333;55.844;-3.210;2023-04-21T15:09:10;0;0;
45871;PMS5003;32333;55.844;-3.210;2023-04-21T15:11:38;0;0;
45871;PMS5003;32333;55.844;-3.210;2023-04-21T15:14:35;0;0;
45871;PMS5003;32333;55.844;-3.210;2023-04-21T15:17:02;1;1;
45871;PMS5003;32333;55.844;-3.210;2023-04-21T15:19:29;0;0;
45871;PMS5003;32333;55.844;-3.210;2023-04-21T15:21:57;0;0;
45871;PMS5003;32333;55.844;-3.210;2023-04-21T15:24:24;0;0;
45871;PMS5003;32333;55.844;-3.210;2023-04-21T15:26:51;1;1;
45871;PMS5003;32333;55.844;-3.210;2023-04-21T15:29:19;0;0;
45871;PMS5003;32333;55.844;-3.210;2023-04-21T15:31:47;0;0;
45871;PMS5003;32333;55.844;-3.210;2023-04-21T15:34:14;0;0;
45871;PMS5003;32333;55.844;-3.210;2023-04-21T15:36:41;0;0;
45871;PMS5003;32333;55.844;-3.210;2023-04-21T15:39:09;1;1;
45871;PMS5003;32333;55.844;-3.210;2023-04-21T15:41:37;0;0;
45871;PMS5003;32333;55.844;-3.210;2023-04-21T15:44:35;0;0;
45871;PMS5003;32333;55.844;-3.210;2023-04-21T15:47:02;0;0;
45871;PMS5003;32333;55.844;-3.210;2023-04-21T15:49:30;3;3;
45871;PMS5003;32333;55.844;-3.210;2023-04-21T15:51:58;0;0;
45871;PMS5003;32333;55.844;-3.210;2023-04-21T15:54:27;1;1;
45871;PMS5003;32333;55.844;-3.210;2023-04-21T15:56:55;0;0;
45871;PMS5003;32333;55.844;-3.210;2023-04-21T15:59:25;0;0;
45871;PMS5003;32333;55.844;-3.210;2023-04-21T16:01:52;0;0;
45871;PMS5003;32333;55.844;-3.210;2023-04-21T16:04:19;0;0;
45871;PMS5003;32333;55.844;-3.210;2023-04-21T16:06:48;1;1;
45871;PMS5003;32333;55.844;-3.210;2023-04-21T16:09:16;0;0;
45871;PMS5003;32333;55.844;-3.210;2023-04-21T16:11:43;1;1;
45871;PMS5003;32333;55.844;-3.210;2023-04-21T16:14:35;1;1;
45871;PMS5003;32333;55.844;-3.210;2023-04-21T16:17:02;1;1;
45871;PMS5003;32333;55.844;-3.210;2023-04-21T16:19:30;1;0;
45871;PMS5003;32333;55.844;-3.210;2023-04-21T16:21:59;0;0;
45871;PMS5003;32333;55.844;-3.210;2023-04-21T16:24:27;0;0;
45871;PMS5003;32333;55.844;-3.210;2023-04-21T16:26:54;0;0;
45871;PMS5003;32333;55.844;-3.210;2023-04-21T16:29:22;0;0;
45871;PMS5003;32333;55.844;-3.210;2023-04-21T16:31:50;0;0;
45871;PMS5003;32333;55.844;-3.210;2023-04-21T16:34:17;0;0;
45871;PMS5003;32333;55.844;-3.210;2023-04-21T16:36:45;0;0;
45871;PMS5003;32333;55.844;-3.210;2023-04-21T16:39:14;1;0;
45871;PMS5003;32333;55.844;-3.210;2023-04-21T16:41:41;1;1;
45871;PMS5003;32333;55.844;-3.210;2023-04-21T16:44:35;1;1;
45871;PMS5003;32333;55.844;-3.210;2023-04-21T16:47:02;0;0;
45871;PMS5003;32333;55.844;-3.210;2023-04-21T16:49:30;4;1;
45871;PMS5003;32333;55.844;-3.210;2023-04-21T16:51:59;0;0;
45871;PMS5003;32333;55.844;-3.210;2023-04-21T16:54:26;0;0;
45871;PMS5003;32333;55.844;-3.210;2023-04-21T16:56:53;0;0;
45871;PMS5003;32333;55.844;-3.210;2023-04-21T16:59:21;1;1;
45871;PMS5003;32333;55.844;-3.210;2023-04-21T17:01:49;0;0;
45871;PMS5003;32333;55.844;-3.210;2023-04-21T17:04:16;0;0;